< < Back
Terminal Aerodrome Forecast


Current Version              Previous Versions:   1  2  3  4  5  6  7  8  9  

Terminal Aerodrome Forecast

833
FTUS42 KGSP 291544 AAB
TAFCLT
TAF AMD
KCLT 291544Z 2916/3012 01005KT P6SM FEW250
     FM291900 25005KT P6SM FEW250
     FM300200 12003KT P6SM SCT150 BKN250=

Latest METAR

054
SAUS70 KWBC 291900 RRM
MTRCLT
METAR KCLT 291852Z VRB04KT 10SM FEW025 SCT250 30/11 A2997 RMK AO2 SLP141
T03000106


USA.gov is the U.S. government's official web portal to all federal, state and local government web resources and services.